createdAt,value
2023-03-24T00:00:24.606Z,2.63
2023-03-24T00:02:51.539Z,3.07
2023-03-24T00:05:19.441Z,2.87
2023-03-24T00:07:46.726Z,2.93
2023-03-24T00:10:18.089Z,2.80
2023-03-24T00:12:45.271Z,2.57
2023-03-24T00:15:18.972Z,3.50
2023-03-24T00:17:46.956Z,3.50
2023-03-24T00:20:15.281Z,2.67
2023-03-24T00:22:48.402Z,3.20
2023-03-24T00:25:15.311Z,4.57
2023-03-24T00:27:41.898Z,2.57
2023-03-24T00:30:09.823Z,3.77
2023-03-24T00:32:39.159Z,3.40
2023-03-24T00:35:06.673Z,3.00
2023-03-24T00:37:33.069Z,3.07
2023-03-24T00:39:59.634Z,3.60
2023-03-24T00:42:26.008Z,3.60
2023-03-24T00:44:53.978Z,3.10
2023-03-24T00:47:25.894Z,3.70
2023-03-24T00:49:53.795Z,3.20
2023-03-24T00:52:21.780Z,3.50
2023-03-24T00:54:49.146Z,3.23
2023-03-24T00:57:22.279Z,2.70
2023-03-24T00:59:52.383Z,2.13
2023-03-24T01:02:24.511Z,2.80
2023-03-24T01:04:54.788Z,2.53
2023-03-24T01:07:21.897Z,3.00
2023-03-24T01:09:56.656Z,2.70
2023-03-24T01:12:28.306Z,2.80
2023-03-24T01:14:54.969Z,2.50
2023-03-24T01:17:25.625Z,2.50
2023-03-24T01:19:55.432Z,2.40
2023-03-24T01:22:22.248Z,2.90
2023-03-24T01:24:48.719Z,2.67
2023-03-24T01:27:15.254Z,2.97
2023-03-24T01:29:41.565Z,2.57
2023-03-24T01:32:08.137Z,2.27
2023-03-24T01:34:34.609Z,2.80
2023-03-24T01:37:01.637Z,2.93
2023-03-24T01:39:28.124Z,2.53
2023-03-24T01:41:54.479Z,2.00
2023-03-24T01:44:30.075Z,2.17
2023-03-24T01:46:56.918Z,2.37
2023-03-24T01:49:25.915Z,2.00
2023-03-24T01:51:54.887Z,2.03
2023-03-24T01:54:21.965Z,2.20
2023-03-24T01:56:58.646Z,2.00
2023-03-24T01:59:27.315Z,2.00
2023-03-24T02:02:02.728Z,2.40
2023-03-24T02:04:34.675Z,1.27
2023-03-24T02:07:04.934Z,1.60
2023-03-24T02:09:31.247Z,1.97
2023-03-24T02:11:57.962Z,1.40
2023-03-24T02:14:24.334Z,1.90
2023-03-24T02:16:50.926Z,1.50
2023-03-24T02:19:38.401Z,1.40
2023-03-24T02:22:23.428Z,1.63
2023-03-24T02:24:52.993Z,1.60
2023-03-24T02:27:38.676Z,1.80
2023-03-24T02:30:11.068Z,1.30
2023-03-24T02:32:56.327Z,1.53
2023-03-24T02:35:36.027Z,1.73
2023-03-24T02:38:08.563Z,1.80
2023-03-24T02:40:43.625Z,1.53
2023-03-24T02:43:19.462Z,1.60
2023-03-24T02:45:53.696Z,1.73
2023-03-24T02:48:22.765Z,2.00
2023-03-24T02:50:58.197Z,1.50
2023-03-24T02:53:32.328Z,1.30
2023-03-24T02:56:03.418Z,1.53
2023-03-24T02:58:38.902Z,1.60
2023-03-24T03:01:05.262Z,1.43
2023-03-24T03:03:38.396Z,1.60
2023-03-24T03:06:37.600Z,1.73
2023-03-24T03:09:07.638Z,1.93
2023-03-24T03:11:34.168Z,2.60
2023-03-24T03:14:06.162Z,1.70
2023-03-24T03:16:39.428Z,1.90
2023-03-24T03:19:20.716Z,1.70
2023-03-24T03:21:48.544Z,2.93
2023-03-24T03:24:26.825Z,2.13
2023-03-24T03:26:57.524Z,1.53
2023-03-24T03:29:25.698Z,1.80
2023-03-24T03:31:59.624Z,1.63
2023-03-24T03:34:46.277Z,1.90
2023-03-24T03:37:27.907Z,1.93
2023-03-24T03:40:20.694Z,1.57
2023-03-24T03:42:47.382Z,1.37
2023-03-24T03:45:14.556Z,1.90
2023-03-24T03:47:41.263Z,1.20
2023-03-24T03:50:08.854Z,1.70
2023-03-24T03:52:36.811Z,1.53
2023-03-24T03:55:03.683Z,2.20
2023-03-24T03:57:30.847Z,0.90
2023-03-24T03:59:58.825Z,1.60
2023-03-24T04:02:27.628Z,2.03
2023-03-24T04:05:14.535Z,1.70
2023-03-24T04:08:03.556Z,1.97
2023-03-24T04:10:34.894Z,1.50
2023-03-24T04:13:08.784Z,2.07
2023-03-24T04:15:43.931Z,2.73
2023-03-24T04:18:11.017Z,2.33
2023-03-24T04:20:47.007Z,3.00
2023-03-24T04:23:32.255Z,1.60
2023-03-24T04:26:17.403Z,1.90
2023-03-24T04:29:02.686Z,2.40
2023-03-24T04:31:29.049Z,2.70
2023-03-24T04:34:03.603Z,1.73
2023-03-24T04:36:42.679Z,1.77
2023-03-24T04:39:13.522Z,2.37
2023-03-24T04:41:41.283Z,2.00
2023-03-24T04:44:07.800Z,1.93
2023-03-24T04:46:34.767Z,2.23
2023-03-24T04:49:03.172Z,2.50
2023-03-24T04:51:29.625Z,1.87
2023-03-24T04:53:56.137Z,2.63
2023-03-24T04:56:28.691Z,2.87
2023-03-24T04:58:55.018Z,2.60
2023-03-24T05:01:21.524Z,1.90
2023-03-24T05:03:48.514Z,2.73
2023-03-24T05:06:15.477Z,3.10
2023-03-24T05:08:41.997Z,2.73
2023-03-24T05:11:08.381Z,2.47
2023-03-24T05:13:34.731Z,3.53
2023-03-24T05:16:01.382Z,3.20
2023-03-24T05:18:27.807Z,3.20
2023-03-24T05:20:54.478Z,3.23
2023-03-24T05:23:20.995Z,3.63
2023-03-24T05:25:47.639Z,2.50
2023-03-24T05:28:13.936Z,2.63
2023-03-24T05:30:40.718Z,2.80
2023-03-24T05:33:07.103Z,2.30
2023-03-24T05:35:33.538Z,2.73
2023-03-24T05:37:59.848Z,2.97
2023-03-24T05:40:26.341Z,2.77
2023-03-24T05:42:52.733Z,2.67
2023-03-24T05:45:19.434Z,3.20
2023-03-24T05:47:46.544Z,3.03
2023-03-24T05:50:12.894Z,3.13
2023-03-24T05:52:39.359Z,2.67
2023-03-24T05:55:05.936Z,2.97
2023-03-24T05:57:32.273Z,3.33
2023-03-24T05:59:58.575Z,2.47
2023-03-24T06:02:27.806Z,2.87
2023-03-24T06:04:55.780Z,3.20
2023-03-24T06:07:26.467Z,3.37
2023-03-24T06:09:52.969Z,2.87
2023-03-24T06:12:21.600Z,2.50
2023-03-24T06:14:48.372Z,2.90
2023-03-24T06:17:15.067Z,2.57
2023-03-24T06:19:48.739Z,3.30
2023-03-24T06:22:16.411Z,2.97
2023-03-24T06:24:42.843Z,2.57
2023-03-24T06:27:09.318Z,3.33
2023-03-24T06:29:36.523Z,3.53
2023-03-24T06:32:03.480Z,3.30
2023-03-24T06:34:29.841Z,2.60
2023-03-24T06:36:56.575Z,3.80
2023-03-24T06:39:23.944Z,3.50
2023-03-24T06:41:50.375Z,2.37
2023-03-24T06:44:16.705Z,3.30
2023-03-24T06:46:43.089Z,2.47
2023-03-24T06:49:09.433Z,3.03
2023-03-24T06:51:35.772Z,4.10
2023-03-24T06:54:03.201Z,2.73
2023-03-24T06:56:30.517Z,2.53
2023-03-24T06:58:57.688Z,2.77
2023-03-24T07:01:24.609Z,3.30
2023-03-24T07:03:51.267Z,3.00
2023-03-24T07:06:18.504Z,3.00
2023-03-24T07:08:45.885Z,3.73
2023-03-24T07:11:14.669Z,3.33
2023-03-24T07:13:41.516Z,2.83
2023-03-24T07:16:08.159Z,3.17
2023-03-24T07:18:34.516Z,2.63
2023-03-24T07:21:01.395Z,2.67
2023-03-24T07:23:27.944Z,3.40
2023-03-24T07:25:54.559Z,2.97
2023-03-24T07:28:21.268Z,3.00
2023-03-24T07:30:48.640Z,3.30
2023-03-24T07:33:15.143Z,3.13
2023-03-24T07:35:41.968Z,3.30
2023-03-24T07:38:08.972Z,3.13
2023-03-24T07:40:35.581Z,3.00
2023-03-24T07:43:03.930Z,2.53
2023-03-24T07:45:30.272Z,2.87
2023-03-24T07:48:01.793Z,3.00
2023-03-24T07:50:28.720Z,2.70
2023-03-24T07:52:56.467Z,3.40
2023-03-24T07:55:24.208Z,2.83
2023-03-24T07:57:50.947Z,3.57
2023-03-24T08:00:20.559Z,2.43
2023-03-24T08:02:48.323Z,3.07
2023-03-24T08:05:15.218Z,2.43
2023-03-24T08:07:42.685Z,2.43
2023-03-24T08:10:10.225Z,2.73
2023-03-24T08:12:36.617Z,2.70
2023-03-24T08:15:04.085Z,2.63
2023-03-24T08:17:30.949Z,2.80
2023-03-24T08:20:00.972Z,2.63
2023-03-24T08:22:29.139Z,2.13
2023-03-24T08:24:55.601Z,2.47
2023-03-24T08:27:22.037Z,3.07
2023-03-24T08:29:48.415Z,2.30
2023-03-24T08:32:14.971Z,2.00
2023-03-24T08:34:41.293Z,3.03
2023-03-24T08:37:08.612Z,2.27
2023-03-24T08:39:35.983Z,2.77
2023-03-24T08:42:02.494Z,1.70
2023-03-24T08:44:31.708Z,2.93
2023-03-24T08:47:00.795Z,2.10
2023-03-24T08:49:27.160Z,2.70
2023-03-24T08:51:53.479Z,2.33
2023-03-24T08:54:21.728Z,1.70
2023-03-24T08:56:48.073Z,1.80
2023-03-24T08:59:14.671Z,2.20
2023-03-24T09:01:41.287Z,2.20
2023-03-24T09:04:08.207Z,1.67
2023-03-24T09:06:34.490Z,2.37
2023-03-24T09:09:00.835Z,2.73
2023-03-24T09:11:27.147Z,2.50
2023-03-24T09:13:53.737Z,2.67
2023-03-24T09:16:20.169Z,1.70
2023-03-24T09:18:47.529Z,2.07
2023-03-24T09:21:14.184Z,1.47
2023-03-24T09:23:40.525Z,2.00
2023-03-24T09:26:07.438Z,2.70
2023-03-24T09:28:34.216Z,2.57
2023-03-24T09:31:02.099Z,2.67
2023-03-24T09:33:32.005Z,2.53
2023-03-24T09:36:00.941Z,2.07
2023-03-24T09:38:28.392Z,2.23
2023-03-24T09:41:03.796Z,2.00
2023-03-24T09:43:34.100Z,2.37
2023-03-24T09:46:02.088Z,2.33
2023-03-24T09:48:35.323Z,3.33
2023-03-24T09:51:12.613Z,2.50
2023-03-24T09:53:54.593Z,2.07
2023-03-24T09:56:22.235Z,2.27
2023-03-24T09:58:53.182Z,1.93
2023-03-24T10:01:19.863Z,2.30
2023-03-24T10:03:46.865Z,2.17
2023-03-24T10:06:21.870Z,2.40
2023-03-24T10:09:04.269Z,2.37
2023-03-24T10:11:46.006Z,2.07
2023-03-24T10:14:12.436Z,1.77
2023-03-24T10:16:38.769Z,2.93
2023-03-24T10:19:17.389Z,2.30
2023-03-24T10:21:49.403Z,2.00
2023-03-24T10:24:23.718Z,1.80
2023-03-24T10:26:53.169Z,2.27
2023-03-24T10:29:25.406Z,2.17
2023-03-24T10:31:54.354Z,2.13
2023-03-24T10:34:22.204Z,2.20
2023-03-24T10:36:48.771Z,1.60
2023-03-24T10:39:20.009Z,2.33
2023-03-24T10:41:49.130Z,2.37
2023-03-24T10:44:15.571Z,2.40
2023-03-24T10:46:47.044Z,1.57
2023-03-24T10:49:14.830Z,1.43
2023-03-24T10:51:51.863Z,2.03
2023-03-24T10:54:18.276Z,2.80
2023-03-24T10:56:46.746Z,2.00
2023-03-24T10:59:32.192Z,2.37
2023-03-24T11:02:00.055Z,2.33
2023-03-24T11:04:27.398Z,1.80
2023-03-24T11:06:55.035Z,2.10
2023-03-24T11:09:22.072Z,3.67
2023-03-24T11:11:48.564Z,1.90
2023-03-24T11:14:20.779Z,3.17
2023-03-24T11:16:47.656Z,1.90
2023-03-24T11:19:24.044Z,2.00
2023-03-24T11:21:52.279Z,3.17
2023-03-24T11:24:19.666Z,2.07
2023-03-24T11:27:00.129Z,2.50
2023-03-24T11:29:28.101Z,1.70
2023-03-24T11:31:56.293Z,1.77
2023-03-24T11:34:24.526Z,1.63
2023-03-24T11:37:02.054Z,1.87
2023-03-24T11:39:31.248Z,1.53
2023-03-24T11:42:12.916Z,1.93
2023-03-24T11:44:39.346Z,2.03
2023-03-24T11:47:08.553Z,1.83
2023-03-24T11:49:39.281Z,2.17
2023-03-24T11:52:08.273Z,1.10
2023-03-24T11:54:36.146Z,1.30
2023-03-24T11:57:08.208Z,1.70
2023-03-24T11:59:40.970Z,1.50
2023-03-24T12:02:10.077Z,1.73
2023-03-24T12:04:42.690Z,1.97
2023-03-24T12:07:28.575Z,1.93
2023-03-24T12:10:13.450Z,1.73
2023-03-24T12:12:45.998Z,1.80
2023-03-24T12:15:26.672Z,1.70
2023-03-24T12:17:54.762Z,2.27
2023-03-24T12:20:30.438Z,1.83
2023-03-24T12:23:06.297Z,1.23
2023-03-24T12:25:39.393Z,1.90
2023-03-24T12:28:09.298Z,2.00
2023-03-24T12:30:48.263Z,1.93
2023-03-24T12:33:40.777Z,2.13
2023-03-24T12:36:42.504Z,2.13
2023-03-24T12:39:10.660Z,2.33
2023-03-24T12:41:55.903Z,1.83
2023-03-24T12:44:41.684Z,1.70
2023-03-24T12:47:14.210Z,2.17
2023-03-24T12:49:49.843Z,1.90
2023-03-24T12:52:25.372Z,2.43
2023-03-24T12:55:04.711Z,1.97
2023-03-24T12:57:34.532Z,1.67
2023-03-24T13:00:08.470Z,2.13
2023-03-24T13:02:41.435Z,1.97
2023-03-24T13:05:16.028Z,1.87
2023-03-24T13:07:44.029Z,2.17
2023-03-24T13:10:27.213Z,1.83
2023-03-24T13:13:01.880Z,1.17
2023-03-24T13:15:33.616Z,2.40
2023-03-24T13:18:08.953Z,2.00
2023-03-24T13:20:44.153Z,1.03
2023-03-24T13:23:22.554Z,2.13
2023-03-24T13:26:07.931Z,1.60
2023-03-24T13:28:46.429Z,1.80
2023-03-24T13:31:14.003Z,1.53
2023-03-24T13:33:42.225Z,2.57
2023-03-24T13:36:23.533Z,1.50
2023-03-24T13:38:51.593Z,1.83
2023-03-24T13:41:19.523Z,1.63
2023-03-24T13:43:50.292Z,1.97
2023-03-24T13:46:16.805Z,1.87
2023-03-24T13:48:44.269Z,1.87
2023-03-24T13:51:18.310Z,2.03
2023-03-24T13:53:44.654Z,2.27
2023-03-24T13:56:12.423Z,1.70
2023-03-24T13:58:49.884Z,2.30
2023-03-24T14:01:18.001Z,1.77
2023-03-24T14:03:45.362Z,1.50
2023-03-24T14:06:15.908Z,1.60
2023-03-24T14:08:43.743Z,2.13
2023-03-24T14:11:28.742Z,2.17
2023-03-24T14:13:55.228Z,1.50
2023-03-24T14:16:36.091Z,2.17
2023-03-24T14:19:18.771Z,2.27
2023-03-24T14:21:45.198Z,1.70
2023-03-24T14:24:17.360Z,2.10
2023-03-24T14:26:43.756Z,2.67
2023-03-24T14:29:29.767Z,2.40
2023-03-24T14:32:06.997Z,2.47
2023-03-24T14:34:50.172Z,2.40
2023-03-24T14:37:16.573Z,1.63
2023-03-24T14:39:47.161Z,2.07
2023-03-24T14:42:31.660Z,2.07
2023-03-24T14:44:59.394Z,2.13
2023-03-24T14:47:34.618Z,0.93
2023-03-24T14:50:09.903Z,1.83
2023-03-24T14:52:41.331Z,2.10
2023-03-24T14:55:12.365Z,2.00
2023-03-24T14:57:43.088Z,2.17
2023-03-24T15:00:32.402Z,2.07
2023-03-24T15:03:02.814Z,1.67
2023-03-24T15:05:30.429Z,1.80
2023-03-24T15:08:06.038Z,1.87
2023-03-24T15:10:41.717Z,1.67
2023-03-24T15:13:28.282Z,1.70
2023-03-24T15:15:55.322Z,2.00
2023-03-24T15:18:25.729Z,2.37
2023-03-24T15:20:52.482Z,2.00
2023-03-24T15:23:20.457Z,1.47
2023-03-24T15:25:47.976Z,1.80
2023-03-24T15:28:41.001Z,1.63
2023-03-24T15:31:08.535Z,2.43
2023-03-24T15:33:41.748Z,2.13
2023-03-24T15:36:20.937Z,1.63
2023-03-24T15:38:49.960Z,1.97
2023-03-24T15:41:17.730Z,1.10
2023-03-24T15:43:45.048Z,1.83
2023-03-24T15:46:37.773Z,1.63
2023-03-24T15:49:04.313Z,1.50
2023-03-24T15:51:50.497Z,1.67
2023-03-24T15:54:28.592Z,1.00
2023-03-24T15:57:04.226Z,1.70
2023-03-24T15:59:35.310Z,1.87
2023-03-24T16:02:03.406Z,1.80
2023-03-24T16:04:30.611Z,1.80
2023-03-24T16:06:57.815Z,1.13
2023-03-24T16:09:27.208Z,1.33
2023-03-24T16:11:53.838Z,1.20
2023-03-24T16:14:25.008Z,1.37
2023-03-24T16:16:58.822Z,1.03
2023-03-24T16:19:25.644Z,1.37
2023-03-24T16:21:51.996Z,1.90
2023-03-24T16:24:19.381Z,1.27
2023-03-24T16:26:46.100Z,2.00
2023-03-24T16:29:17.221Z,1.50
2023-03-24T16:31:44.206Z,1.77
2023-03-24T16:34:10.706Z,1.63
2023-03-24T16:36:37.154Z,1.97
2023-03-24T16:39:10.085Z,2.03
2023-03-24T16:41:36.399Z,1.90
2023-03-24T16:44:02.812Z,1.30
2023-03-24T16:46:33.120Z,1.40
2023-03-24T16:49:00.131Z,1.93
2023-03-24T16:51:27.189Z,1.33
2023-03-24T16:53:53.588Z,1.50
2023-03-24T16:56:21.132Z,1.07
2023-03-24T16:58:50.794Z,1.77
2023-03-24T17:01:26.466Z,0.83
2023-03-24T17:03:54.563Z,1.17
2023-03-24T17:06:21.493Z,1.33
2023-03-24T17:08:47.925Z,1.43
2023-03-24T17:11:15.910Z,0.80
2023-03-24T17:13:42.350Z,1.50
2023-03-24T17:16:09.685Z,1.20
2023-03-24T17:18:39.541Z,1.50
2023-03-24T17:21:16.610Z,0.97
2023-03-24T17:23:43.878Z,0.93
2023-03-24T17:26:10.338Z,0.83
2023-03-24T17:28:36.723Z,1.30
2023-03-24T17:31:03.360Z,1.83
2023-03-24T17:33:29.876Z,1.07
2023-03-24T17:35:56.412Z,1.00
2023-03-24T17:38:22.874Z,1.23
2023-03-24T17:40:49.415Z,1.10
2023-03-24T17:43:16.061Z,1.30
2023-03-24T17:45:42.520Z,1.03
2023-03-24T17:48:08.948Z,1.20
2023-03-24T17:50:35.813Z,1.30
2023-03-24T17:53:02.728Z,1.30
2023-03-24T17:55:29.186Z,1.40
2023-03-24T17:57:55.691Z,1.27
2023-03-24T18:00:22.107Z,1.23
2023-03-24T18:02:48.591Z,1.17
2023-03-24T18:05:15.982Z,1.10
2023-03-24T18:07:42.649Z,1.27
2023-03-24T18:10:09.290Z,1.87
2023-03-24T18:12:37.126Z,1.70
2023-03-24T18:15:04.716Z,1.43
2023-03-24T18:17:31.526Z,1.23
2023-03-24T18:20:00.019Z,1.17
2023-03-24T18:22:27.197Z,1.20
2023-03-24T18:24:54.651Z,1.40
2023-03-24T18:27:21.164Z,1.43
2023-03-24T18:29:47.594Z,1.60
2023-03-24T18:32:14.635Z,1.40
2023-03-24T18:34:46.821Z,1.87
2023-03-24T18:37:15.423Z,1.53
2023-03-24T18:39:41.794Z,2.23
2023-03-24T18:42:08.198Z,1.53
2023-03-24T18:44:34.793Z,1.43
2023-03-24T18:47:01.160Z,2.13
2023-03-24T18:49:27.667Z,1.93
2023-03-24T18:51:53.961Z,2.47
2023-03-24T18:54:20.468Z,1.97
2023-03-24T18:56:46.816Z,1.53
2023-03-24T18:59:13.310Z,1.90
2023-03-24T19:01:39.762Z,1.47
2023-03-24T19:04:06.277Z,1.50
2023-03-24T19:06:34.337Z,1.70
2023-03-24T19:09:01.533Z,1.43
2023-03-24T19:11:28.249Z,2.17
2023-03-24T19:13:57.640Z,1.40
2023-03-24T19:16:24.137Z,1.27
2023-03-24T19:18:50.950Z,1.67
2023-03-24T19:21:17.878Z,2.17
2023-03-24T19:23:44.709Z,1.93
2023-03-24T19:26:11.169Z,2.43
2023-03-24T19:28:37.705Z,3.03
2023-03-24T19:31:08.972Z,2.23
2023-03-24T19:33:36.944Z,2.57
2023-03-24T19:36:04.015Z,1.40
2023-03-24T19:38:30.553Z,1.60
2023-03-24T19:40:56.985Z,2.10
2023-03-24T19:43:26.328Z,1.57
2023-03-24T19:45:53.239Z,1.60
2023-03-24T19:48:21.078Z,1.63
2023-03-24T19:50:50.017Z,1.90
2023-03-24T19:53:16.464Z,1.40
2023-03-24T19:55:42.835Z,2.17
2023-03-24T19:58:09.169Z,2.43
2023-03-24T20:00:35.963Z,1.50
2023-03-24T20:03:02.481Z,1.33
2023-03-24T20:05:29.048Z,1.33
2023-03-24T20:07:58.462Z,1.53
2023-03-24T20:10:26.383Z,1.50
2023-03-24T20:12:52.802Z,1.60
2023-03-24T20:15:19.243Z,1.80
2023-03-24T20:17:45.942Z,2.00
2023-03-24T20:20:13.130Z,1.60
2023-03-24T20:22:42.207Z,1.73
2023-03-24T20:25:09.854Z,1.87
2023-03-24T20:27:36.738Z,2.73
2023-03-24T20:30:03.904Z,2.13
2023-03-24T20:32:30.609Z,2.10
2023-03-24T20:34:56.960Z,1.57
2023-03-24T20:37:25.514Z,2.00
2023-03-24T20:39:52.027Z,1.43
2023-03-24T20:42:23.372Z,1.70
2023-03-24T20:44:52.605Z,1.30
2023-03-24T20:47:25.967Z,2.30
2023-03-24T20:49:52.436Z,1.70
2023-03-24T20:52:20.658Z,1.70
2023-03-24T20:54:47.003Z,1.97
2023-03-24T20:57:13.390Z,1.90
2023-03-24T20:59:40.035Z,1.33
2023-03-24T21:02:06.689Z,1.80
2023-03-24T21:04:33.658Z,1.53
2023-03-24T21:07:00.172Z,2.53
2023-03-24T21:09:26.654Z,2.83
2023-03-24T21:11:53.503Z,2.00
2023-03-24T21:14:20.361Z,2.20
2023-03-24T21:16:47.352Z,2.07
2023-03-24T21:19:14.611Z,1.97
2023-03-24T21:21:42.831Z,2.43
2023-03-24T21:24:09.179Z,1.77
2023-03-24T21:26:35.678Z,2.50
2023-03-24T21:29:01.998Z,2.07
2023-03-24T21:31:30.627Z,2.00
2023-03-24T21:33:59.409Z,2.07
2023-03-24T21:36:29.915Z,2.53
2023-03-24T21:38:59.577Z,2.57
2023-03-24T21:41:25.891Z,2.03
2023-03-24T21:43:54.394Z,1.73
2023-03-24T21:46:26.467Z,1.90
2023-03-24T21:48:55.511Z,1.83
2023-03-24T21:51:26.236Z,2.27
2023-03-24T21:53:55.805Z,1.50
2023-03-24T21:56:24.019Z,1.63
2023-03-24T21:58:52.377Z,1.43
2023-03-24T22:01:18.748Z,2.70
2023-03-24T22:03:46.424Z,1.83
2023-03-24T22:06:12.980Z,2.30
2023-03-24T22:08:43.753Z,2.70
2023-03-24T22:11:10.911Z,2.07
2023-03-24T22:13:39.135Z,1.87
2023-03-24T22:16:06.885Z,1.83
2023-03-24T22:18:34.504Z,1.90
2023-03-24T22:21:03.479Z,1.80
2023-03-24T22:23:33.411Z,2.40
2023-03-24T22:26:04.168Z,1.63
2023-03-24T22:28:31.516Z,1.53
2023-03-24T22:31:02.129Z,2.57
2023-03-24T22:33:28.778Z,2.00
2023-03-24T22:35:56.348Z,1.47
2023-03-24T22:38:23.076Z,2.00
2023-03-24T22:40:50.017Z,1.47
2023-03-24T22:43:16.431Z,2.30
2023-03-24T22:45:44.439Z,2.90
2023-03-24T22:48:11.135Z,2.37
2023-03-24T22:50:39.344Z,2.13
2023-03-24T22:53:05.817Z,1.80
2023-03-24T22:55:32.189Z,2.10
2023-03-24T22:57:58.538Z,2.27
2023-03-24T23:00:24.965Z,2.37
2023-03-24T23:02:51.587Z,1.80
2023-03-24T23:05:18.025Z,3.00
2023-03-24T23:07:44.528Z,2.47
2023-03-24T23:10:11.582Z,2.37
2023-03-24T23:12:37.908Z,2.23
2023-03-24T23:15:05.453Z,1.60
2023-03-24T23:17:31.882Z,1.67
2023-03-24T23:19:58.476Z,2.53
2023-03-24T23:22:24.839Z,1.87
2023-03-24T23:24:53.844Z,1.87
2023-03-24T23:27:32.978Z,1.90
2023-03-24T23:29:59.336Z,2.70
2023-03-24T23:32:25.781Z,2.33
2023-03-24T23:34:52.284Z,2.47
2023-03-24T23:37:18.702Z,3.23
2023-03-24T23:39:45.826Z,2.93
2023-03-24T23:42:12.201Z,3.60
2023-03-24T23:44:39.645Z,2.47
2023-03-24T23:47:05.973Z,2.43
2023-03-24T23:49:32.303Z,2.63
2023-03-24T23:51:58.623Z,1.87
2023-03-24T23:54:24.933Z,2.43
2023-03-24T23:56:51.518Z,3.10
2023-03-24T23:59:18.495Z,2.77
